createdAt,value
2018-12-18T00:01:06.470Z,9.40
2018-12-18T00:03:39.293Z,12.57
2018-12-18T00:06:05.071Z,13.90
2018-12-18T00:08:33.230Z,12.30
2018-12-18T00:11:03.460Z,12.67
2018-12-18T00:13:31.689Z,12.50
2018-12-18T00:15:59.854Z,13.23
2018-12-18T00:18:28.114Z,11.00
2018-12-18T00:20:56.419Z,13.87
2018-12-18T00:23:24.693Z,10.77
2018-12-18T00:25:52.995Z,11.30
2018-12-18T00:28:21.219Z,7.13
2018-12-18T00:30:49.447Z,9.93
2018-12-18T00:33:17.671Z,10.27
2018-12-18T00:35:45.838Z,11.20
2018-12-18T00:38:14.028Z,10.53
2018-12-18T00:40:42.226Z,9.13
2018-12-18T00:43:10.432Z,7.17
2018-12-18T00:45:38.725Z,10.47
2018-12-18T00:48:07.021Z,9.47
2018-12-18T00:50:35.301Z,13.37
2018-12-18T00:53:04.548Z,17.17
2018-12-18T00:55:32.742Z,8.27
2018-12-18T00:58:00.931Z,8.50
2018-12-18T01:00:29.247Z,10.57
2018-12-18T01:02:57.490Z,9.53
2018-12-18T01:05:25.953Z,13.10
2018-12-18T01:07:54.177Z,10.60
2018-12-18T01:10:23.541Z,10.10
2018-12-18T01:12:51.755Z,10.03
2018-12-18T01:15:19.931Z,11.23
2018-12-18T01:17:48.123Z,10.93
2018-12-18T01:20:16.320Z,11.20
2018-12-18T01:22:44.507Z,12.37
2018-12-18T01:25:12.738Z,9.07
2018-12-18T01:27:40.915Z,10.13
2018-12-18T01:30:09.280Z,9.83
2018-12-18T01:32:37.529Z,10.63
2018-12-18T01:35:05.832Z,11.00
2018-12-18T01:37:34.001Z,13.97
2018-12-18T01:40:02.306Z,13.20
2018-12-18T01:42:32.576Z,13.53
2018-12-18T01:45:00.734Z,12.33
2018-12-18T01:47:28.961Z,12.37
2018-12-18T01:49:57.131Z,10.87
2018-12-18T01:52:25.441Z,7.90
2018-12-18T01:54:53.664Z,13.07
2018-12-18T01:57:21.895Z,15.17
2018-12-18T01:59:50.113Z,14.07
2018-12-18T02:02:18.407Z,16.20
2018-12-18T02:04:46.735Z,11.10
2018-12-18T02:07:14.971Z,11.90
2018-12-18T02:09:43.167Z,9.03
2018-12-18T02:12:11.358Z,13.80
2018-12-18T02:14:39.589Z,10.67
2018-12-18T02:17:07.877Z,8.97
2018-12-18T02:19:36.095Z,8.80
2018-12-18T02:22:04.360Z,10.20
2018-12-18T02:24:32.535Z,9.53
2018-12-18T02:27:00.715Z,8.90
2018-12-18T02:29:28.913Z,10.30
2018-12-18T02:31:57.125Z,14.60
2018-12-18T02:34:25.386Z,10.20
2018-12-18T02:36:53.634Z,9.80
2018-12-18T02:39:21.931Z,8.53
2018-12-18T02:41:50.053Z,9.07
2018-12-18T02:44:18.280Z,11.90
2018-12-18T02:46:46.541Z,11.63
2018-12-18T02:49:14.878Z,11.83
2018-12-18T02:51:43.181Z,10.20
2018-12-18T02:54:11.418Z,12.80
2018-12-18T02:56:39.653Z,9.43
2018-12-18T02:59:07.857Z,9.83
2018-12-18T03:01:36.191Z,9.13
2018-12-18T03:04:04.402Z,13.70
2018-12-18T03:06:32.590Z,11.53
2018-12-18T03:09:00.776Z,9.17
2018-12-18T03:11:28.971Z,7.50
2018-12-18T03:13:57.142Z,6.70
2018-12-18T03:16:25.434Z,11.37
2018-12-18T03:18:53.689Z,9.63
2018-12-18T03:21:21.894Z,10.70
2018-12-18T03:23:50.076Z,8.23
2018-12-18T03:26:18.354Z,13.17
2018-12-18T03:28:46.564Z,8.33
2018-12-18T03:31:14.770Z,8.90
2018-12-18T03:33:42.955Z,10.40
2018-12-18T03:36:11.160Z,7.33
2018-12-18T03:38:39.388Z,9.30
2018-12-18T03:41:07.628Z,11.37
2018-12-18T03:43:35.870Z,9.63
2018-12-18T03:46:04.199Z,9.23
2018-12-18T03:48:32.477Z,13.33
2018-12-18T03:51:00.689Z,15.70
2018-12-18T03:53:28.914Z,15.23
2018-12-18T03:55:57.184Z,14.47
2018-12-18T03:58:25.397Z,11.40
2018-12-18T04:00:53.714Z,11.47
2018-12-18T04:03:22.073Z,12.70
2018-12-18T04:05:50.226Z,13.63
2018-12-18T04:08:18.462Z,12.93
2018-12-18T04:10:46.677Z,11.57
2018-12-18T04:13:15.019Z,13.77
2018-12-18T04:15:43.281Z,12.20
2018-12-18T04:18:11.554Z,15.07
2018-12-18T04:20:39.841Z,18.67
2018-12-18T04:23:08.147Z,13.60
2018-12-18T04:25:36.354Z,12.57
2018-12-18T04:28:04.589Z,9.90
2018-12-18T04:30:32.824Z,10.10
2018-12-18T04:33:01.024Z,11.80
2018-12-18T04:35:29.273Z,14.70
2018-12-18T04:37:57.430Z,14.53
2018-12-18T04:40:25.643Z,16.33
2018-12-18T04:42:53.827Z,11.20
2018-12-18T04:45:22.156Z,14.03
2018-12-18T04:47:50.322Z,21.30
2018-12-18T04:50:18.585Z,24.43
2018-12-18T04:52:46.859Z,20.80
2018-12-18T04:55:15.123Z,14.00
2018-12-18T04:57:43.401Z,17.30
2018-12-18T05:00:11.753Z,12.83
2018-12-18T05:02:40.266Z,19.53
2018-12-18T05:05:08.814Z,15.43
2018-12-18T05:07:37.265Z,14.63
2018-12-18T05:10:06.182Z,10.67
2018-12-18T05:12:34.633Z,8.10
2018-12-18T05:15:03.138Z,14.13
2018-12-18T05:17:31.593Z,16.50
2018-12-18T05:20:00.016Z,9.37
2018-12-18T05:22:28.458Z,11.10
2018-12-18T05:24:56.976Z,10.43
2018-12-18T05:27:25.465Z,13.50
2018-12-18T05:29:53.956Z,14.57
2018-12-18T05:32:22.400Z,11.17
2018-12-18T05:34:56.386Z,10.77
2018-12-18T05:37:21.273Z,10.30
2018-12-18T05:39:49.719Z,13.60
2018-12-18T05:42:18.182Z,10.50
2018-12-18T05:44:46.702Z,11.53
2018-12-18T05:47:15.179Z,8.17
2018-12-18T05:49:43.632Z,13.77
2018-12-18T05:52:12.080Z,9.83
2018-12-18T05:54:40.580Z,11.40
2018-12-18T05:57:08.972Z,14.13
2018-12-18T05:59:37.456Z,12.00
2018-12-18T06:02:05.893Z,13.70
2018-12-18T06:04:34.344Z,13.43
2018-12-18T06:07:02.835Z,12.60
2018-12-18T06:09:31.255Z,12.23
2018-12-18T06:11:59.800Z,16.13
2018-12-18T06:14:28.419Z,13.17
2018-12-18T06:16:56.794Z,15.77
2018-12-18T06:19:25.281Z,11.77
2018-12-18T06:21:53.861Z,18.40
2018-12-18T06:24:22.305Z,10.37
2018-12-18T06:26:50.767Z,10.33
2018-12-18T06:29:19.233Z,13.00
2018-12-18T06:31:47.705Z,10.90
2018-12-18T06:34:16.199Z,8.90
2018-12-18T06:36:44.792Z,11.93
2018-12-18T06:39:13.330Z,11.93
2018-12-18T06:41:41.892Z,10.53
2018-12-18T06:44:10.418Z,11.27
2018-12-18T06:46:38.987Z,12.17
2018-12-18T06:49:07.415Z,10.10
2018-12-18T06:51:35.969Z,15.83
2018-12-18T06:54:04.475Z,14.27
2018-12-18T06:56:33.037Z,13.80
2018-12-18T06:59:01.527Z,14.53
2018-12-18T07:01:30.036Z,15.50
2018-12-18T07:03:58.522Z,13.17
2018-12-18T07:06:27.056Z,12.57
2018-12-18T07:08:55.656Z,16.33
2018-12-18T07:11:24.230Z,10.53
2018-12-18T07:13:52.739Z,14.60
2018-12-18T07:16:21.406Z,10.10
2018-12-18T07:18:50.046Z,9.93
2018-12-18T07:21:18.500Z,16.03
2018-12-18T07:23:47.030Z,10.60
2018-12-18T07:26:15.300Z,14.00
2018-12-18T07:28:43.492Z,17.77
2018-12-18T07:31:11.980Z,17.00
2018-12-18T07:33:40.214Z,12.97
2018-12-18T07:36:08.444Z,9.40
2018-12-18T07:38:36.619Z,13.20
2018-12-18T07:41:04.878Z,8.70
2018-12-18T07:43:33.061Z,7.33
2018-12-18T07:46:01.269Z,9.97
2018-12-18T07:48:29.554Z,6.37
2018-12-18T07:50:57.892Z,13.13
2018-12-18T07:53:26.146Z,8.70
2018-12-18T07:56:00.226Z,14.77
2018-12-18T07:58:25.153Z,8.60
2018-12-18T08:00:54.039Z,8.13
2018-12-18T08:03:22.241Z,11.27
2018-12-18T08:05:50.435Z,10.73
2018-12-18T08:08:18.670Z,10.40
2018-12-18T08:10:46.914Z,11.60
2018-12-18T08:13:15.076Z,12.97
2018-12-18T08:15:43.626Z,11.07
2018-12-18T08:18:11.975Z,12.20
2018-12-18T08:20:40.233Z,13.00
2018-12-18T08:23:08.523Z,7.00
2018-12-18T08:25:36.688Z,11.20
2018-12-18T08:28:04.933Z,13.17
2018-12-18T08:30:33.195Z,15.03
2018-12-18T08:33:01.502Z,14.00
2018-12-18T08:35:36.279Z,10.63
2018-12-18T08:38:00.029Z,8.10
2018-12-18T08:40:28.260Z,7.13
2018-12-18T08:42:56.426Z,9.30
2018-12-18T08:45:24.622Z,9.80
2018-12-18T08:47:52.834Z,8.60
2018-12-18T08:50:20.988Z,11.17
2018-12-18T08:52:49.256Z,12.87
2018-12-18T08:55:17.477Z,12.93
2018-12-18T08:57:45.731Z,19.23
2018-12-18T09:00:14.055Z,14.20
2018-12-18T09:02:42.285Z,12.90
2018-12-18T09:05:10.477Z,13.87
2018-12-18T09:07:38.662Z,16.10
2018-12-18T09:10:08.737Z,17.20
2018-12-18T09:12:36.987Z,23.70
2018-12-18T09:15:10.427Z,12.03
2018-12-18T09:17:44.081Z,13.63
2018-12-18T09:20:12.268Z,18.57
2018-12-18T09:22:40.456Z,17.10
2018-12-18T09:25:08.813Z,11.43
2018-12-18T09:27:36.998Z,7.80
2018-12-18T09:30:06.808Z,9.37
2018-12-18T09:32:35.057Z,12.50
2018-12-18T09:35:03.351Z,8.43
2018-12-18T09:37:31.613Z,10.47
2018-12-18T09:39:59.813Z,11.53
2018-12-18T09:42:33.638Z,8.60
2018-12-18T09:45:01.780Z,6.87
2018-12-18T09:47:29.973Z,8.73
2018-12-18T09:49:58.152Z,12.87
2018-12-18T09:52:26.329Z,12.03
2018-12-18T09:54:54.562Z,15.00
2018-12-18T09:57:28.145Z,10.43
2018-12-18T09:59:56.333Z,10.47
2018-12-18T10:02:24.504Z,9.17
2018-12-18T10:04:52.684Z,10.27
2018-12-18T10:07:20.885Z,9.93
2018-12-18T10:09:49.082Z,6.50
2018-12-18T10:12:21.524Z,11.20
2018-12-18T10:14:49.737Z,9.17
2018-12-18T10:17:18.151Z,10.23
2018-12-18T10:19:46.431Z,5.90
2018-12-18T10:22:14.622Z,6.70
2018-12-18T10:24:43.004Z,7.70
2018-12-18T10:27:11.209Z,10.17
2018-12-18T10:29:39.409Z,10.60
2018-12-18T10:32:07.621Z,10.17
2018-12-18T10:34:35.825Z,11.40
2018-12-18T10:37:04.040Z,13.27
2018-12-18T10:39:32.351Z,11.17
2018-12-18T10:42:00.575Z,9.93
2018-12-18T10:44:28.850Z,7.03
2018-12-18T10:46:57.079Z,9.07
2018-12-18T10:49:25.359Z,11.07
2018-12-18T10:51:53.622Z,11.47
2018-12-18T10:54:21.793Z,8.57
2018-12-18T10:56:49.990Z,6.67
2018-12-18T10:59:18.226Z,9.97
2018-12-18T11:01:47.762Z,11.17
2018-12-18T11:04:16.242Z,8.33
2018-12-18T11:06:44.567Z,11.93
2018-12-18T11:09:12.814Z,9.27
2018-12-18T11:11:41.035Z,8.23
2018-12-18T11:14:09.346Z,10.77
2018-12-18T11:16:37.720Z,6.63
2018-12-18T11:19:06.100Z,7.13
2018-12-18T11:21:34.342Z,10.40
2018-12-18T11:24:02.711Z,10.00
2018-12-18T11:26:31.124Z,8.70
2018-12-18T11:28:59.373Z,10.57
2018-12-18T11:31:27.528Z,8.67
2018-12-18T11:33:55.722Z,8.73
2018-12-18T11:36:23.954Z,6.17
2018-12-18T11:38:52.138Z,7.83
2018-12-18T11:41:20.473Z,7.80
2018-12-18T11:43:48.783Z,8.30
2018-12-18T11:46:17.031Z,7.57
2018-12-18T11:48:45.241Z,9.07
2018-12-18T11:51:13.521Z,10.97
2018-12-18T11:53:41.738Z,6.17
2018-12-18T11:56:09.928Z,9.87
2018-12-18T11:58:38.148Z,7.33
2018-12-18T12:01:06.433Z,10.13
2018-12-18T12:03:34.798Z,9.93
2018-12-18T12:06:03.081Z,8.93
2018-12-18T12:08:31.303Z,9.57
2018-12-18T12:10:59.501Z,9.20
2018-12-18T12:13:27.741Z,6.27
2018-12-18T12:15:56.093Z,6.30
2018-12-18T12:18:24.318Z,6.57
2018-12-18T12:20:52.612Z,5.07
2018-12-18T12:23:20.871Z,9.23
2018-12-18T12:25:49.105Z,8.17
2018-12-18T12:28:17.299Z,8.80
2018-12-18T12:30:45.496Z,6.77
2018-12-18T12:33:14.006Z,6.60
2018-12-18T12:35:42.481Z,4.87
2018-12-18T12:38:11.006Z,6.87
2018-12-18T12:40:39.661Z,5.47
2018-12-18T12:43:07.892Z,5.50
2018-12-18T12:45:36.636Z,10.50
2018-12-18T12:48:09.349Z,7.20
2018-12-18T12:50:37.824Z,5.33
2018-12-18T12:53:06.317Z,7.43
2018-12-18T12:55:34.769Z,8.37
2018-12-18T12:58:03.366Z,8.23
2018-12-18T13:00:31.924Z,9.30
2018-12-18T13:03:00.395Z,7.87
2018-12-18T13:05:29.081Z,6.60
2018-12-18T13:07:57.673Z,5.87
2018-12-18T13:10:26.183Z,8.80
2018-12-18T13:12:54.619Z,9.43
2018-12-18T13:15:23.087Z,6.47
2018-12-18T13:17:51.552Z,8.77
2018-12-18T13:20:20.152Z,4.97
2018-12-18T13:22:48.681Z,5.10
2018-12-18T13:25:17.185Z,9.93
2018-12-18T13:27:45.541Z,7.90
2018-12-18T13:30:13.703Z,12.53
2018-12-18T13:32:41.877Z,12.53
2018-12-18T13:35:10.163Z,8.30
2018-12-18T13:37:38.332Z,6.73
2018-12-18T13:40:06.565Z,9.97
2018-12-18T13:42:34.753Z,6.43
2018-12-18T13:45:03.290Z,6.47
2018-12-18T13:47:31.613Z,7.17
2018-12-18T13:50:00.165Z,6.90
2018-12-18T13:52:28.425Z,6.00
2018-12-18T13:54:56.677Z,7.13
2018-12-18T13:57:25.058Z,11.53
2018-12-18T13:59:53.341Z,5.20
2018-12-18T14:02:21.628Z,5.73
2018-12-18T14:04:49.808Z,7.80
2018-12-18T14:07:18.002Z,8.03
2018-12-18T14:09:46.260Z,7.13
2018-12-18T14:12:14.661Z,6.27
2018-12-18T14:14:42.844Z,7.47
2018-12-18T14:17:11.064Z,5.67
2018-12-18T14:19:39.219Z,8.13
2018-12-18T14:22:07.444Z,7.07
2018-12-18T14:24:35.947Z,8.60
2018-12-18T14:27:04.679Z,5.40
2018-12-18T14:29:33.205Z,7.20
2018-12-18T14:32:01.747Z,10.07
2018-12-18T14:34:30.668Z,7.43
2018-12-18T14:36:59.705Z,6.63
2018-12-18T14:39:28.370Z,5.57
2018-12-18T14:41:57.790Z,5.07
2018-12-18T14:44:26.276Z,4.97
2018-12-18T14:46:54.727Z,7.30
2018-12-18T14:49:23.054Z,5.33
2018-12-18T14:51:51.331Z,6.93
2018-12-18T14:54:20.008Z,5.47
2018-12-18T14:56:48.634Z,4.77
2018-12-18T14:59:17.489Z,6.30
2018-12-18T15:01:45.781Z,7.83
2018-12-18T15:04:14.062Z,13.27
2018-12-18T15:06:42.431Z,7.10
2018-12-18T15:09:10.669Z,4.83
2018-12-18T15:11:38.982Z,6.03
2018-12-18T15:14:07.281Z,7.13
2018-12-18T15:16:35.680Z,6.07
2018-12-18T15:19:03.965Z,5.17
2018-12-18T15:21:32.150Z,8.60
2018-12-18T15:24:00.336Z,7.23
2018-12-18T15:26:28.664Z,9.77
2018-12-18T15:28:56.910Z,6.43
2018-12-18T15:31:25.140Z,10.00
2018-12-18T15:33:53.360Z,7.27
2018-12-18T15:36:22.429Z,9.00
2018-12-18T15:38:50.732Z,3.87
2018-12-18T15:41:18.922Z,4.30
2018-12-18T15:43:47.134Z,8.07
2018-12-18T15:46:15.334Z,11.10
2018-12-18T15:48:43.534Z,5.57
2018-12-18T15:51:11.720Z,7.60
2018-12-18T15:53:39.885Z,8.00
2018-12-18T15:56:08.021Z,11.73
2018-12-18T15:58:36.262Z,9.23
2018-12-18T16:01:04.924Z,14.67
2018-12-18T16:03:33.294Z,6.10
2018-12-18T16:06:01.718Z,7.80
2018-12-18T16:08:30.053Z,9.10
2018-12-18T16:10:58.397Z,6.53
2018-12-18T16:13:26.732Z,6.87
2018-12-18T16:15:54.935Z,6.67
2018-12-18T16:18:24.309Z,8.73
2018-12-18T16:20:52.585Z,12.50
2018-12-18T16:23:20.845Z,7.07
2018-12-18T16:25:49.240Z,12.80
2018-12-18T16:28:17.637Z,7.73
2018-12-18T16:30:45.967Z,7.53
2018-12-18T16:33:14.212Z,10.50
2018-12-18T16:35:46.115Z,6.07
2018-12-18T16:38:12.768Z,7.37
2018-12-18T16:40:41.090Z,8.77
2018-12-18T16:43:09.313Z,11.43
2018-12-18T16:45:37.520Z,9.67
2018-12-18T16:48:05.795Z,12.70
2018-12-18T16:50:34.830Z,8.77
2018-12-18T16:53:03.222Z,8.03
2018-12-18T16:55:31.449Z,9.03
2018-12-18T16:57:59.650Z,7.03
2018-12-18T17:00:27.802Z,10.73
2018-12-18T17:02:56.035Z,9.73
2018-12-18T17:05:24.233Z,20.27
2018-12-18T17:07:52.467Z,10.63
2018-12-18T17:10:20.706Z,17.90
2018-12-18T17:12:54.151Z,10.53
2018-12-18T17:15:22.393Z,11.63
2018-12-18T17:17:50.646Z,11.30
2018-12-18T17:20:18.913Z,13.17
2018-12-18T17:22:47.098Z,15.90
2018-12-18T17:25:15.307Z,15.70
2018-12-18T17:27:43.529Z,13.90
2018-12-18T17:30:11.911Z,14.13
2018-12-18T17:32:40.321Z,12.87
2018-12-18T17:35:08.642Z,16.47
2018-12-18T17:37:37.474Z,18.63
2018-12-18T17:40:07.564Z,16.00
2018-12-18T17:42:35.790Z,22.77
2018-12-18T17:45:04.806Z,17.10
2018-12-18T17:47:32.977Z,17.50
2018-12-18T17:50:01.411Z,14.00
2018-12-18T17:52:29.820Z,13.67
2018-12-18T17:54:58.902Z,14.10
2018-12-18T17:57:27.810Z,14.73
2018-12-18T17:59:57.286Z,14.67
2018-12-18T18:02:26.588Z,13.03
2018-12-18T18:04:55.837Z,12.47
2018-12-18T18:07:24.038Z,17.23
2018-12-18T18:09:52.298Z,14.43
2018-12-18T18:12:20.506Z,20.07
2018-12-18T18:14:48.659Z,14.97
2018-12-18T18:17:16.822Z,17.63
2018-12-18T18:19:45.008Z,23.03
2018-12-18T18:22:13.281Z,16.67
2018-12-18T18:24:41.621Z,18.37
2018-12-18T18:27:09.847Z,17.00
2018-12-18T18:29:38.127Z,15.40
2018-12-18T18:32:06.342Z,18.77
2018-12-18T18:34:34.567Z,17.07
2018-12-18T18:37:02.769Z,17.77
2018-12-18T18:39:31.049Z,14.83
2018-12-18T18:41:59.304Z,17.53
2018-12-18T18:44:27.479Z,14.37
2018-12-18T18:46:55.665Z,13.27
2018-12-18T18:49:23.857Z,16.87
2018-12-18T18:51:52.081Z,14.77
2018-12-18T18:54:20.260Z,12.27
2018-12-18T18:56:48.604Z,15.10
2018-12-18T18:59:16.809Z,13.30
2018-12-18T19:01:45.033Z,11.53
2018-12-18T19:04:13.409Z,17.20
2018-12-18T19:06:41.661Z,15.50
2018-12-18T19:09:09.850Z,9.97
2018-12-18T19:11:38.024Z,16.53
2018-12-18T19:14:06.389Z,11.93
2018-12-18T19:16:34.671Z,15.50
2018-12-18T19:19:02.873Z,11.63
2018-12-18T19:21:31.179Z,11.67
2018-12-18T19:23:59.397Z,10.57
2018-12-18T19:26:27.618Z,10.00
2018-12-18T19:28:55.897Z,13.47
2018-12-18T19:31:24.267Z,13.87
2018-12-18T19:33:52.565Z,16.63
2018-12-18T19:36:20.786Z,11.17
2018-12-18T19:38:49.133Z,10.83
2018-12-18T19:41:17.408Z,12.03
2018-12-18T19:43:45.970Z,13.17
2018-12-18T19:46:14.438Z,11.13
2018-12-18T19:48:42.971Z,15.33
2018-12-18T19:51:11.236Z,16.03
2018-12-18T19:53:39.543Z,14.03
2018-12-18T19:56:07.964Z,14.50
2018-12-18T19:58:36.247Z,11.73
2018-12-18T20:01:04.558Z,14.63
2018-12-18T20:03:32.783Z,12.53
2018-12-18T20:06:01.073Z,10.90
2018-12-18T20:08:29.359Z,13.00
2018-12-18T20:10:57.640Z,12.57
2018-12-18T20:13:25.926Z,10.00
2018-12-18T20:15:54.318Z,10.10
2018-12-18T20:18:22.888Z,13.70
2018-12-18T20:20:51.320Z,12.70
2018-12-18T20:23:19.648Z,12.73
2018-12-18T20:25:48.211Z,12.37
2018-12-18T20:28:16.491Z,16.80
2018-12-18T20:30:44.790Z,14.27
2018-12-18T20:33:13.081Z,12.73
2018-12-18T20:35:41.387Z,12.20
2018-12-18T20:38:09.700Z,10.63
2018-12-18T20:40:37.985Z,12.70
2018-12-18T20:43:06.500Z,12.70
2018-12-18T20:45:35.141Z,14.40
2018-12-18T20:48:03.477Z,12.27
2018-12-18T20:50:31.882Z,14.80
2018-12-18T20:53:00.206Z,14.97
2018-12-18T20:55:28.466Z,12.30
2018-12-18T20:57:56.941Z,12.40
2018-12-18T21:00:25.428Z,11.27
2018-12-18T21:02:53.805Z,11.87
2018-12-18T21:05:22.177Z,12.97
2018-12-18T21:07:50.672Z,8.57
2018-12-18T21:10:19.120Z,11.50
2018-12-18T21:12:47.505Z,12.27
2018-12-18T21:15:15.807Z,11.73
2018-12-18T21:17:44.117Z,12.23
2018-12-18T21:20:12.661Z,11.17
2018-12-18T21:22:41.292Z,13.07
2018-12-18T21:25:09.843Z,9.50
2018-12-18T21:27:38.413Z,11.03
2018-12-18T21:30:08.092Z,12.13
2018-12-18T21:32:36.555Z,11.67
2018-12-18T21:35:05.264Z,8.07
2018-12-18T21:37:33.549Z,9.50
2018-12-18T21:40:01.859Z,9.27
2018-12-18T21:42:30.322Z,11.13
2018-12-18T21:44:58.711Z,9.63
2018-12-18T21:47:27.051Z,10.03
2018-12-18T21:49:55.272Z,8.93
2018-12-18T21:52:23.584Z,9.90
2018-12-18T21:54:51.977Z,8.10
2018-12-18T21:57:20.337Z,7.87
2018-12-18T21:59:48.622Z,7.17
2018-12-18T22:02:16.939Z,8.43
2018-12-18T22:04:45.235Z,8.43
2018-12-18T22:07:13.575Z,9.20
2018-12-18T22:09:41.949Z,8.80
2018-12-18T22:12:10.264Z,8.93
2018-12-18T22:14:38.639Z,7.87
2018-12-18T22:17:06.927Z,7.93
2018-12-18T22:19:35.252Z,9.20
2018-12-18T22:22:03.537Z,7.30
2018-12-18T22:24:31.839Z,7.67
2018-12-18T22:27:00.242Z,9.27
2018-12-18T22:29:28.569Z,8.00
2018-12-18T22:31:56.896Z,9.67
2018-12-18T22:34:25.324Z,9.17
2018-12-18T22:36:53.567Z,9.33
2018-12-18T22:39:21.885Z,12.40
2018-12-18T22:41:50.143Z,7.97
2018-12-18T22:44:18.470Z,6.07
2018-12-18T22:46:46.720Z,9.43
2018-12-18T22:49:15.043Z,9.30
2018-12-18T22:51:43.316Z,9.87
2018-12-18T22:54:11.589Z,10.90
2018-12-18T22:56:39.822Z,6.33
2018-12-18T22:59:08.243Z,8.67
2018-12-18T23:01:40.877Z,9.03
2018-12-18T23:04:09.126Z,6.43
2018-12-18T23:06:37.580Z,9.63
2018-12-18T23:09:10.237Z,8.97
2018-12-18T23:11:38.538Z,7.63
2018-12-18T23:14:06.872Z,8.27
2018-12-18T23:16:35.112Z,8.93
2018-12-18T23:19:03.605Z,7.93
2018-12-18T23:21:31.857Z,7.50
2018-12-18T23:24:00.212Z,9.40
2018-12-18T23:26:28.478Z,9.70
2018-12-18T23:28:56.716Z,9.40
2018-12-18T23:31:25.028Z,7.93
2018-12-18T23:33:53.343Z,7.80
2018-12-18T23:36:21.747Z,5.43
2018-12-18T23:38:56.500Z,6.30
2018-12-18T23:41:20.324Z,6.10
2018-12-18T23:43:48.690Z,7.63
2018-12-18T23:46:16.979Z,8.80
2018-12-18T23:48:45.357Z,9.60
2018-12-18T23:51:13.737Z,9.00
2018-12-18T23:53:42.096Z,5.70
2018-12-18T23:56:10.340Z,5.90
2018-12-18T23:58:38.626Z,7.13
